Time;durP1;ratioP1;P1;durP2;ratioP2;P2;SDS_P1;SDS_P2;PMS_P1;PMS_P2;Temp;Humidity;BMP_temperature;BMP_pressure;BME280_temperature;BME280_humidity;BME280_pressure;Samples;Min_cycle;Max_cycle;Signal;HPM_P1;HPM_P2
2021/11/24 00:01:54;;;;;;;16.33;11.32;;;7.60;99.90;;;;;;5019097;28;20036;-83
2021/11/24 00:04:19;;;;;;;15.98;11.18;;;7.60;99.90;;;;;;5022992;28;20478;-82
2021/11/24 00:06:45;;;;;;;13.85;9.70;;;7.60;99.90;;;;;;5019828;28;20062;-83
2021/11/24 00:09:10;;;;;;;16.52;10.40;;;7.60;99.90;;;;;;5018110;28;20508;-83
2021/11/24 00:11:36;;;;;;;13.82;9.30;;;7.60;99.90;;;;;;5025730;28;20160;-82
2021/11/24 00:14:01;;;;;;;15.32;10.63;;;7.60;99.90;;;;;;5012277;28;20126;-82
2021/11/24 00:16:27;;;;;;;15.55;10.82;;;7.60;99.90;;;;;;5024469;28;20032;-83
2021/11/24 00:18:52;;;;;;;15.98;11.15;;;7.60;99.90;;;;;;5020100;28;20057;-82
2021/11/24 00:21:21;;;;;;;15.65;10.95;;;7.60;99.90;;;;;;5014913;28;20026;-84
2021/11/24 00:23:47;;;;;;;17.77;10.45;;;7.60;99.90;;;;;;5034901;28;20041;-82
2021/11/24 00:26:13;;;;;;;17.27;11.05;;;7.60;99.90;;;;;;5015765;28;20100;-83
2021/11/24 00:28:38;;;;;;;17.92;11.30;;;7.60;99.90;;;;;;5022615;28;20121;-81
2021/11/24 00:31:04;;;;;;;16.50;10.45;;;7.60;99.90;;;;;;5025858;28;20044;-81
2021/11/24 00:33:29;;;;;;;16.90;10.68;;;7.70;99.90;;;;;;5017971;28;20411;-83
2021/11/24 00:35:55;;;;;;;15.60;10.82;;;7.60;99.90;;;;;;5014523;28;20037;-83
2021/11/24 00:38:21;;;;;;;13.60;9.63;;;7.70;99.90;;;;;;5014927;28;20490;-82
2021/11/24 00:40:46;;;;;;;16.95;11.07;;;7.70;99.90;;;;;;5011698;28;20033;-82
2021/11/24 00:43:12;;;;;;;16.58;10.68;;;7.70;99.90;;;;;;5018585;28;20033;-82
2021/11/24 00:45:37;;;;;;;16.33;11.75;;;7.70;99.90;;;;;;5012638;28;20025;-82
2021/11/24 00:48:04;;;;;;;19.35;11.65;;;7.60;99.90;;;;;;5010604;28;20022;-82
2021/11/24 00:50:30;;;;;;;14.43;11.27;;;7.60;99.90;;;;;;5022453;28;20076;-83
2021/11/24 00:52:55;;;;;;;17.85;11.15;;;7.60;99.90;;;;;;5017458;28;20034;-82
2021/11/24 00:55:21;;;;;;;14.93;11.05;;;7.60;99.90;;;;;;5021960;28;20046;-82
2021/11/24 00:57:47;;;;;;;17.10;11.13;;;7.60;99.90;;;;;;5021946;28;20053;-83
2021/11/24 01:00:17;;;;;;;15.82;10.85;;;7.60;99.90;;;;;;5027150;28;20021;-81
2021/11/24 01:02:43;;;;;;;19.38;11.50;;;7.70;99.90;;;;;;5025025;28;20482;-82
2021/11/24 01:05:09;;;;;;;19.13;12.13;;;7.70;99.90;;;;;;5025910;28;20031;-83
2021/11/24 01:07:34;;;;;;;17.60;11.43;;;7.70;99.90;;;;;;5018380;28;20474;-83
2021/11/24 01:10:00;;;;;;;17.98;11.98;;;7.70;99.90;;;;;;5017641;28;20466;-83
2021/11/24 01:12:25;;;;;;;19.48;11.75;;;7.70;99.90;;;;;;5025415;28;20041;-83
2021/11/24 01:14:51;;;;;;;18.52;12.13;;;7.70;99.90;;;;;;5020017;28;20057;-82
2021/11/24 01:17:17;;;;;;;16.23;10.90;;;7.70;99.90;;;;;;5013086;28;20030;-85
2021/11/24 01:19:43;;;;;;;18.55;11.10;;;7.70;99.90;;;;;;5025075;28;20025;-80
2021/11/24 01:22:08;;;;;;;19.10;12.40;;;7.70;99.90;;;;;;5022053;28;20041;-81
2021/11/24 01:24:34;;;;;;;18.90;12.43;;;7.70;99.90;;;;;;5019843;28;20044;-82
2021/11/24 01:26:59;;;;;;;20.77;11.90;;;7.70;99.90;;;;;;5030655;28;20025;-82
2021/11/24 01:29:25;;;;;;;18.88;11.90;;;7.70;99.90;;;;;;5021585;28;20029;-82
2021/11/24 01:31:50;;;;;;;19.80;11.48;;;7.60;99.90;;;;;;5020187;28;20030;-82
2021/11/24 01:34:16;;;;;;;18.65;11.65;;;7.70;99.90;;;;;;5027418;28;20045;-82
2021/11/24 01:36:44;;;;;;;17.95;12.10;;;7.70;99.90;;;;;;5013978;28;20043;-82
2021/11/24 01:39:10;;;;;;;17.05;11.68;;;7.70;99.90;;;;;;5011674;28;20088;-83
2021/11/24 01:41:36;;;;;;;20.00;12.60;;;7.70;99.90;;;;;;5024962;28;20483;-82
2021/11/24 01:44:01;;;;;;;19.55;12.95;;;7.70;99.90;;;;;;5016638;28;20029;-82
2021/11/24 01:46:28;;;;;;;23.45;13.45;;;7.80;99.90;;;;;;5018671;28;20040;-82
2021/11/24 01:48:53;;;;;;;18.63;11.23;;;7.80;99.90;;;;;;5018708;28;20061;-82
2021/11/24 01:51:19;;;;;;;21.25;13.25;;;7.80;99.90;;;;;;5017447;28;20192;-82
2021/11/24 01:53:45;;;;;;;18.27;12.07;;;7.80;99.90;;;;;;5023799;28;20028;-82
2021/11/24 01:56:11;;;;;;;19.30;12.57;;;7.70;99.90;;;;;;5013893;28;20030;-82
2021/11/24 01:58:38;;;;;;;18.10;12.60;;;7.60;99.90;;;;;;5028391;28;20038;-82
2021/11/24 02:01:04;;;;;;;22.08;12.77;;;7.60;99.90;;;;;;5019786;28;20034;-83
2021/11/24 02:03:30;;;;;;;19.90;12.15;;;7.60;99.90;;;;;;5022892;28;20025;-81
2021/11/24 02:05:56;;;;;;;22.33;13.23;;;7.60;99.90;;;;;;5026889;28;20385;-83
2021/11/24 02:08:21;;;;;;;20.50;13.38;;;7.60;99.90;;;;;;5028627;28;20037;-83
2021/11/24 02:10:47;;;;;;;19.58;11.55;;;7.60;99.90;;;;;;5029121;28;20033;-83
2021/11/24 02:13:13;;;;;;;19.05;12.38;;;7.50;99.90;;;;;;5026380;28;20072;-84
2021/11/24 02:15:38;;;;;;;18.77;12.15;;;7.50;99.90;;;;;;5018880;28;20030;-83
2021/11/24 02:18:06;;;;;;;22.13;13.73;;;7.50;99.90;;;;;;5020726;28;20046;-83
2021/11/24 02:20:45;;;;;;;24.13;13.43;;;7.50;99.90;;;;;;5024772;28;20656;-83
2021/11/24 02:23:12;;;;;;;24.30;14.38;;;7.60;99.90;;;;;;5028437;28;20178;-83
2021/11/24 02:25:39;;;;;;;24.02;14.35;;;7.60;99.90;;;;;;5019625;28;20665;-83
2021/11/24 02:28:05;;;;;;;20.50;13.60;;;7.50;99.90;;;;;;5014115;28;20029;-83
2021/11/24 02:30:31;;;;;;;24.67;13.82;;;7.60;99.90;;;;;;5014405;28;20037;-83
2021/11/24 02:32:57;;;;;;;22.35;14.18;;;7.50;99.90;;;;;;5017750;28;20034;-84
2021/11/24 02:35:23;;;;;;;22.63;13.40;;;7.50;99.90;;;;;;5035492;28;20032;-84
2021/11/24 02:37:48;;;;;;;25.70;13.55;;;7.50;99.90;;;;;;5014557;28;20394;-84
2021/11/24 02:40:14;;;;;;;24.40;14.32;;;7.50;99.90;;;;;;5017357;28;20036;-84
2021/11/24 02:42:40;;;;;;;25.30;15.90;;;7.50;99.90;;;;;;5019430;28;20052;-84
2021/11/24 02:45:07;;;;;;;24.48;14.20;;;7.40;99.90;;;;;;5023087;28;20034;-83
2021/11/24 02:47:32;;;;;;;26.17;15.57;;;7.40;99.90;;;;;;5013060;28;20052;-84
2021/11/24 02:50:03;;;;;;;23.50;14.93;;;7.40;99.90;;;;;;5022932;28;20506;-84
2021/11/24 02:52:29;;;;;;;22.65;14.30;;;7.40;99.90;;;;;;5015895;28;20022;-83
2021/11/24 02:54:57;;;;;;;24.23;15.10;;;7.40;99.90;;;;;;5023418;28;20030;-83
2021/11/24 02:57:38;;;;;;;20.65;14.02;;;7.30;99.90;;;;;;5023385;28;20069;-84
2021/11/24 03:00:11;;;;;;;24.10;15.48;;;7.40;99.90;;;;;;5021311;28;20375;-83
2021/11/24 03:02:37;;;;;;;25.52;14.77;;;7.40;99.90;;;;;;5027980;28;20379;-83
2021/11/24 03:05:03;;;;;;;25.25;14.35;;;7.30;99.90;;;;;;5026862;28;20049;-83
2021/11/24 03:07:28;;;;;;;25.65;15.30;;;7.30;99.90;;;;;;5019822;28;20029;-83
2021/11/24 03:09:54;;;;;;;26.88;14.82;;;7.40;99.90;;;;;;5017970;28;20040;-83
2021/11/24 03:12:21;;;;;;;23.55;14.25;;;7.30;99.90;;;;;;5017599;28;20041;-84
2021/11/24 03:14:46;;;;;;;26.45;15.13;;;7.30;99.90;;;;;;5014845;28;20261;-83
2021/11/24 03:17:12;;;;;;;24.10;14.75;;;7.40;99.90;;;;;;5018050;28;20143;-82
2021/11/24 03:19:37;;;;;;;22.02;13.98;;;7.40;99.90;;;;;;5017973;28;20551;-81
2021/11/24 03:22:03;;;;;;;25.50;15.40;;;7.40;99.90;;;;;;5031245;28;20046;-83
2021/11/24 03:24:28;;;;;;;27.02;15.35;;;7.40;99.90;;;;;;5029870;28;20414;-84
2021/11/24 03:26:54;;;;;;;25.15;14.73;;;7.40;99.90;;;;;;5024292;28;20033;-82
2021/11/24 03:29:20;;;;;;;26.98;15.55;;;7.40;99.90;;;;;;5023911;28;20116;-82
2021/11/24 03:31:45;;;;;;;23.85;14.52;;;7.40;99.90;;;;;;5012497;28;20030;-82
2021/11/24 03:34:11;;;;;;;24.40;15.10;;;7.40;99.90;;;;;;5024826;28;20037;-84
2021/11/24 03:36:37;;;;;;;21.92;14.20;;;7.50;99.90;;;;;;5022410;28;20107;-82
2021/11/24 03:39:04;;;;;;;24.83;15.75;;;7.50;99.90;;;;;;5023305;28;20033;-82
2021/11/24 03:41:30;;;;;;;25.23;14.65;;;7.50;99.90;;;;;;5024946;28;20033;-82
2021/11/24 03:43:56;;;;;;;23.52;14.30;;;7.50;99.90;;;;;;5018088;28;20030;-83
2021/11/24 03:46:21;;;;;;;23.55;14.82;;;7.50;99.90;;;;;;5021057;28;20029;-84
2021/11/24 03:48:47;;;;;;;22.10;13.82;;;7.50;99.90;;;;;;5027011;28;20060;-84
2021/11/24 03:51:13;;;;;;;21.92;14.18;;;7.50;99.90;;;;;;5013016;28;20041;-83
2021/11/24 03:53:40;;;;;;;24.75;14.50;;;7.50;99.90;;;;;;5023181;28;20068;-84
2021/11/24 03:56:08;;;;;;;25.85;15.07;;;7.50;99.90;;;;;;5019864;28;20037;-84
2021/11/24 03:58:33;;;;;;;26.20;14.30;;;7.50;99.90;;;;;;5015167;28;20459;-84
2021/11/24 04:00:59;;;;;;;24.35;14.57;;;7.50;99.90;;;;;;5026092;28;20116;-82
2021/11/24 04:03:24;;;;;;;18.95;12.68;;;7.50;99.90;;;;;;5027658;28;20033;-84
2021/11/24 04:05:52;;;;;;;27.65;14.57;;;7.50;99.90;;;;;;5028095;28;20034;-82
2021/11/24 04:08:19;;;;;;;25.48;15.15;;;7.50;99.90;;;;;;5017696;28;20087;-83
2021/11/24 04:10:44;;;;;;;22.92;14.85;;;7.50;99.90;;;;;;5025011;28;20461;-82
2021/11/24 04:13:10;;;;;;;27.73;15.02;;;7.50;99.90;;;;;;5019673;28;20041;-82
2021/11/24 04:15:35;;;;;;;27.13;16.23;;;7.50;99.90;;;;;;5013434;28;20462;-82
2021/11/24 04:18:01;;;;;;;21.60;14.23;;;7.50;99.90;;;;;;5020203;28;20903;-82
2021/11/24 04:20:26;;;;;;;25.10;15.52;;;7.50;99.90;;;;;;5016227;28;20109;-82
2021/11/24 04:22:52;;;;;;;22.88;13.90;;;7.50;99.90;;;;;;5024844;28;20079;-83
2021/11/24 04:25:18;;;;;;;27.13;15.30;;;7.40;99.90;;;;;;5011591;28;20478;-83
2021/11/24 04:27:45;;;;;;;27.67;15.55;;;7.40;99.90;;;;;;5013294;28;20398;-82
2021/11/24 04:30:12;;;;;;;25.70;15.30;;;7.40;99.90;;;;;;5024496;28;20030;-82
2021/11/24 04:32:38;;;;;;;27.33;15.27;;;7.30;99.90;;;;;;5021565;28;20029;-82
2021/11/24 04:35:04;;;;;;;28.58;15.48;;;7.40;99.90;;;;;;5031178;28;20037;-83
2021/11/24 04:37:29;;;;;;;27.40;15.57;;;7.40;99.90;;;;;;5017646;28;20025;-82
2021/11/24 04:39:55;;;;;;;27.90;15.45;;;7.40;99.90;;;;;;5024184;28;20493;-83
2021/11/24 04:42:21;;;;;;;23.95;14.95;;;7.30;99.90;;;;;;5023940;28;20049;-83
2021/11/24 04:44:46;;;;;;;32.13;15.98;;;7.30;99.90;;;;;;5016345;28;20034;-83
2021/11/24 04:47:12;;;;;;;27.95;14.55;;;7.40;99.90;;;;;;5019620;28;20113;-83
2021/11/24 04:49:38;;;;;;;33.63;17.73;;;7.40;99.90;;;;;;5026395;28;20041;-83
2021/11/24 04:52:04;;;;;;;27.55;17.00;;;7.40;99.90;;;;;;5025335;28;20568;-83
2021/11/24 04:54:30;;;;;;;25.10;14.75;;;7.40;99.90;;;;;;5026891;28;20032;-84
2021/11/24 04:56:55;;;;;;;29.13;15.18;;;7.40;99.90;;;;;;5030015;28;20063;-84
2021/11/24 04:59:22;;;;;;;28.88;16.23;;;7.40;99.90;;;;;;5028308;28;20040;-84
2021/11/24 05:01:48;;;;;;;28.02;15.20;;;7.40;99.90;;;;;;5027512;28;20064;-85
2021/11/24 05:04:13;;;;;;;26.23;15.52;;;7.40;99.90;;;;;;5022283;28;20029;-84
2021/11/24 05:06:39;;;;;;;30.05;16.15;;;7.50;99.90;;;;;;5025087;28;20057;-83
2021/11/24 05:09:06;;;;;;;25.45;14.63;;;7.50;99.90;;;;;;5025863;28;20045;-83
2021/11/24 05:11:34;;;;;;;24.70;14.38;;;7.50;99.90;;;;;;5024275;28;20030;-83
2021/11/24 05:14:02;;;;;;;26.33;15.13;;;7.40;99.90;;;;;;5028334;28;20207;-81
2021/11/24 05:16:32;;;;;;;24.75;14.50;;;7.40;99.90;;;;;;5017670;28;20026;-82
2021/11/24 05:18:58;;;;;;;26.58;16.25;;;7.40;99.90;;;;;;5024335;28;20092;-85
2021/11/24 05:21:31;;;;;;;23.70;14.73;;;7.40;99.90;;;;;;5030304;28;20498;-83
2021/11/24 05:23:58;;;;;;;24.33;14.98;;;7.50;99.90;;;;;;5034730;28;20040;-83
2021/11/24 05:26:24;;;;;;;26.08;15.57;;;7.50;99.90;;;;;;5017848;28;20144;-83
2021/11/24 05:28:51;;;;;;;29.45;16.05;;;7.50;99.90;;;;;;5027643;28;20048;-84
2021/11/24 05:31:16;;;;;;;25.27;14.90;;;7.50;99.90;;;;;;5018901;28;20602;-83
2021/11/24 05:33:43;;;;;;;24.70;14.43;;;7.50;99.90;;;;;;5026462;28;20038;-83
2021/11/24 05:36:09;;;;;;;23.90;15.27;;;7.60;99.90;;;;;;5027148;28;20018;-83
2021/11/24 05:38:34;;;;;;;28.40;15.70;;;7.60;99.90;;;;;;5029469;28;20041;-83
2021/11/24 05:41:00;;;;;;;26.40;14.98;;;7.50;99.90;;;;;;5027784;28;20034;-82
2021/11/24 05:43:28;;;;;;;25.15;15.88;;;7.50;99.90;;;;;;5021919;28;20022;-82
2021/11/24 05:48:21;;;;;;;26.75;16.27;;;7.50;99.90;;;;;;5026252;28;20076;-82
2021/11/24 05:50:48;;;;;;;28.05;15.55;;;7.50;99.90;;;;;;5026405;28;20199;-84
2021/11/24 05:53:17;;;;;;;29.10;15.82;;;7.50;99.90;;;;;;5026143;28;20025;-85
2021/11/24 05:55:47;;;;;;;28.05;15.43;;;7.50;99.90;;;;;;5015780;28;20108;-81
2021/11/24 05:58:14;;;;;;;28.77;15.00;;;7.50;99.90;;;;;;5026869;28;20124;-83
2021/11/24 06:00:40;;;;;;;26.70;15.73;;;7.50;99.90;;;;;;5017039;28;20036;-85
2021/11/24 06:03:06;;;;;;;30.00;16.30;;;7.60;99.90;;;;;;5022427;28;20022;-83
2021/11/24 06:05:32;;;;;;;29.75;16.88;;;7.50;99.90;;;;;;5016075;28;20025;-85
2021/11/24 06:07:57;;;;;;;31.45;16.67;;;7.60;99.90;;;;;;5025746;28;20061;-84
2021/11/24 06:10:23;;;;;;;32.25;16.42;;;7.60;99.90;;;;;;5028629;28;20116;-85
2021/11/24 06:12:49;;;;;;;28.33;16.52;;;7.60;99.90;;;;;;5019846;28;20532;-83
2021/11/24 06:15:16;;;;;;;29.30;15.48;;;7.60;99.90;;;;;;5032151;28;20033;-84
2021/11/24 06:17:42;;;;;;;35.63;18.15;;;7.60;99.90;;;;;;5026072;28;20489;-83
2021/11/24 06:20:10;;;;;;;26.90;15.77;;;7.60;99.90;;;;;;5023650;28;20033;-83
2021/11/24 06:22:37;;;;;;;27.00;16.50;;;7.60;99.90;;;;;;5029316;28;20461;-83
2021/11/24 06:25:03;;;;;;;27.17;16.83;;;7.60;99.90;;;;;;5020010;28;20489;-82
2021/11/24 06:27:28;;;;;;;34.60;17.20;;;7.60;99.90;;;;;;5015992;28;20036;-84
2021/11/24 06:29:54;;;;;;;32.00;17.30;;;7.60;99.90;;;;;;5024226;28;20685;-82
2021/11/24 06:32:19;;;;;;;35.17;17.92;;;7.60;99.90;;;;;;5028528;28;20079;-84
2021/11/24 06:34:45;;;;;;;31.50;16.85;;;7.60;99.90;;;;;;5025393;28;20092;-83
2021/11/24 06:37:10;;;;;;;28.88;16.73;;;7.60;99.90;;;;;;5023971;28;20648;-82
2021/11/24 06:39:36;;;;;;;34.05;18.45;;;7.60;99.90;;;;;;5022716;28;20144;-83
2021/11/24 06:42:02;;;;;;;34.58;17.45;;;7.70;99.90;;;;;;5028277;28;20025;-83
2021/11/24 06:44:27;;;;;;;29.98;18.13;;;7.70;99.90;;;;;;5028037;28;20490;-81
2021/11/24 06:46:53;;;;;;;32.15;16.85;;;7.70;99.90;;;;;;5024116;28;20100;-80
2021/11/24 06:49:18;;;;;;;29.73;16.85;;;7.70;99.90;;;;;;5021123;28;20048;-80
2021/11/24 06:51:44;;;;;;;32.60;18.58;;;7.70;99.90;;;;;;5021821;28;20434;-82
2021/11/24 06:54:10;;;;;;;35.28;18.02;;;7.70;99.90;;;;;;5034658;28;20030;-81
2021/11/24 06:56:36;;;;;;;33.78;17.02;;;7.70;99.90;;;;;;5027882;28;20030;-82
2021/11/24 06:59:02;;;;;;;29.73;16.88;;;7.70;99.90;;;;;;5021262;28;20498;-82
2021/11/24 07:01:28;;;;;;;31.90;18.80;;;7.70;99.90;;;;;;5020078;28;20017;-82
2021/11/24 07:03:53;;;;;;;30.65;17.48;;;7.70;99.90;;;;;;5015273;28;20030;-83
2021/11/24 07:06:19;;;;;;;34.05;19.50;;;7.70;99.90;;;;;;5032654;28;20042;-82
2021/11/24 07:08:44;;;;;;;34.78;18.23;;;7.80;99.90;;;;;;5018629;28;20387;-81
2021/11/24 07:11:10;;;;;;;32.75;17.98;;;7.70;99.90;;;;;;5026899;28;20060;-81
2021/11/24 07:13:35;;;;;;;31.30;17.63;;;7.80;99.90;;;;;;5027546;28;20033;-82
2021/11/24 07:16:01;;;;;;;37.58;19.15;;;7.70;99.90;;;;;;5025117;28;20025;-81
2021/11/24 07:18:26;;;;;;;34.80;20.00;;;7.80;99.90;;;;;;5026562;28;20030;-82
2021/11/24 07:20:52;;;;;;;33.03;18.27;;;7.80;99.90;;;;;;5027225;28;20037;-82
2021/11/24 07:23:18;;;;;;;33.92;19.02;;;7.80;99.90;;;;;;5024730;28;20457;-81
2021/11/24 07:25:43;;;;;;;36.00;18.70;;;7.80;99.90;;;;;;5043342;28;20112;-81
2021/11/24 07:28:09;;;;;;;34.05;17.38;;;7.90;99.90;;;;;;5018342;28;20107;-82
2021/11/24 07:30:34;;;;;;;32.85;18.17;;;7.90;99.90;;;;;;5019200;28;20029;-81
2021/11/24 07:33:00;;;;;;;34.33;18.15;;;7.90;99.90;;;;;;5014789;28;20053;-83
2021/11/24 07:35:26;;;;;;;29.35;17.77;;;8.00;99.90;;;;;;5008465;28;20036;-82
2021/11/24 07:37:51;;;;;;;28.83;17.33;;;8.00;99.90;;;;;;5027941;28;20041;-84
2021/11/24 07:40:18;;;;;;;29.20;16.35;;;8.00;99.90;;;;;;5020708;28;20053;-82
2021/11/24 07:42:44;;;;;;;32.38;18.38;;;8.00;99.90;;;;;;5026079;28;20033;-83
2021/11/24 07:45:10;;;;;;;33.67;18.05;;;8.10;99.90;;;;;;5017707;28;20033;-82
2021/11/24 07:47:35;;;;;;;29.48;17.48;;;8.10;99.90;;;;;;5028523;28;20668;-84
2021/11/24 07:50:01;;;;;;;33.53;16.33;;;8.10;99.90;;;;;;5010325;28;20470;-84
2021/11/24 07:52:26;;;;;;;32.33;15.90;;;8.10;99.90;;;;;;5025656;28;20030;-83
2021/11/24 07:54:52;;;;;;;28.27;17.00;;;8.20;99.90;;;;;;5036727;28;20135;-83
2021/11/24 07:57:20;;;;;;;28.98;17.73;;;8.20;99.90;;;;;;5011720;28;20030;-84
2021/11/24 07:59:45;;;;;;;31.13;16.70;;;8.20;99.90;;;;;;5021622;28;20041;-84
2021/11/24 08:02:11;;;;;;;30.15;15.10;;;8.30;99.90;;;;;;5016110;28;20478;-83
2021/11/24 08:04:36;;;;;;;28.85;16.35;;;8.30;99.90;;;;;;5021824;28;20099;-84
2021/11/24 08:07:03;;;;;;;26.50;15.45;;;8.40;99.90;;;;;;5018660;28;20076;-83
2021/11/24 08:09:30;;;;;;;25.42;15.48;;;8.40;99.90;;;;;;5016760;28;20025;-84
2021/11/24 08:11:56;;;;;;;26.70;15.52;;;8.40;99.90;;;;;;5024715;28;20057;-84
2021/11/24 08:14:22;;;;;;;31.15;17.25;;;8.40;99.90;;;;;;5011687;28;20079;-83
2021/11/24 08:16:47;;;;;;;28.05;16.58;;;8.40;99.90;;;;;;5020471;28;20037;-83
2021/11/24 08:19:15;;;;;;;27.77;15.40;;;8.50;99.90;;;;;;5021171;28;20041;-83
2021/11/24 08:21:41;;;;;;;26.55;15.07;;;8.50;99.90;;;;;;5022625;28;20538;-83
2021/11/24 08:24:06;;;;;;;25.35;15.80;;;8.50;99.90;;;;;;5040170;28;20062;-83
2021/11/24 08:26:32;;;;;;;29.42;15.73;;;8.40;99.90;;;;;;5025331;28;20029;-82
2021/11/24 08:28:57;;;;;;;27.17;15.15;;;8.40;99.90;;;;;;5035189;28;20037;-83
2021/11/24 08:31:23;;;;;;;26.20;15.13;;;8.40;99.90;;;;;;5025120;28;20045;-82
2021/11/24 08:33:50;;;;;;;34.03;16.38;;;8.50;99.90;;;;;;5025132;28;20537;-83
2021/11/24 08:36:15;;;;;;;26.83;15.88;;;8.50;99.90;;;;;;5013274;28;20029;-83
2021/11/24 08:38:42;;;;;;;28.70;15.60;;;8.50;99.90;;;;;;5013681;28;20812;-83
2021/11/24 08:41:11;;;;;;;30.30;15.43;;;8.50;99.90;;;;;;5014582;28;20105;-83
2021/11/24 08:43:38;;;;;;;28.23;17.77;;;8.50;99.90;;;;;;5028349;28;20030;-83
2021/11/24 08:46:04;;;;;;;29.35;15.45;;;8.60;99.90;;;;;;5018188;28;20096;-83
2021/11/24 08:48:30;;;;;;;31.20;16.60;;;8.60;99.90;;;;;;5019557;28;20522;-82
2021/11/24 08:50:56;;;;;;;26.13;16.05;;;8.60;99.90;;;;;;5026031;28;20029;-84
2021/11/24 08:53:22;;;;;;;26.80;15.95;;;8.60;99.90;;;;;;5019609;28;20036;-83
2021/11/24 08:55:48;;;;;;;27.85;16.17;;;8.60;99.90;;;;;;5007921;28;20030;-85
2021/11/24 08:58:14;;;;;;;24.65;16.30;;;8.60;99.90;;;;;;5013645;28;20026;-85
2021/11/24 09:00:39;;;;;;;24.10;15.18;;;8.70;99.90;;;;;;5016455;28;20486;-85
2021/11/24 09:03:06;;;;;;;26.48;15.85;;;8.70;99.90;;;;;;5026522;28;20029;-86
2021/11/24 09:05:32;;;;;;;23.63;15.52;;;8.70;99.90;;;;;;5025671;28;20024;-85
2021/11/24 09:07:58;;;;;;;26.27;15.75;;;8.70;99.90;;;;;;5024592;28;20021;-83
2021/11/24 09:10:26;;;;;;;25.67;16.02;;;8.70;99.90;;;;;;5028024;28;20457;-83
2021/11/24 09:12:52;;;;;;;26.00;15.63;;;8.70;99.90;;;;;;5026104;28;20485;-85
2021/11/24 09:15:19;;;;;;;22.67;14.75;;;8.70;99.90;;;;;;5027025;28;20065;-83
2021/11/24 09:17:44;;;;;;;23.23;15.52;;;8.80;99.90;;;;;;5023974;28;20053;-83
2021/11/24 09:20:10;;;;;;;25.55;16.40;;;8.70;99.90;;;;;;5025803;28;20061;-86
2021/11/24 09:22:42;;;;;;;27.55;15.55;;;8.70;99.90;;;;;;5019145;28;20033;-83
2021/11/24 09:25:10;;;;;;;27.50;15.90;;;8.70;99.90;;;;;;5022262;28;20132;-85
2021/11/24 09:27:46;;;;;;;26.67;16.58;;;8.80;99.90;;;;;;5019669;28;20032;-84
2021/11/24 09:30:13;;;;;;;27.65;15.18;;;8.80;99.90;;;;;;5021484;28;20408;-81
2021/11/24 09:32:39;;;;;;;22.65;14.18;;;8.90;99.90;;;;;;5027701;28;20029;-83
2021/11/24 09:35:05;;;;;;;22.55;14.63;;;9.00;99.90;;;;;;5018910;28;20493;-82
2021/11/24 09:37:31;;;;;;;26.02;15.63;;;9.00;99.90;;;;;;5014940;28;20532;-83
2021/11/24 09:39:58;;;;;;;25.88;15.40;;;9.10;99.90;;;;;;5021476;28;20049;-84
2021/11/24 09:42:31;;;;;;;26.80;14.80;;;9.10;99.90;;;;;;5019337;28;20097;-85
2021/11/24 09:44:57;;;;;;;26.05;16.23;;;9.20;99.90;;;;;;5039612;28;20034;-84
2021/11/24 09:47:25;;;;;;;26.90;15.10;;;9.20;99.90;;;;;;5026750;28;20493;-83
2021/11/24 09:49:56;;;;;;;27.48;15.48;;;9.20;99.90;;;;;;5012205;28;20053;-84
2021/11/24 09:52:22;;;;;;;24.73;14.98;;;9.20;99.90;;;;;;5031072;28;20038;-84
2021/11/24 09:54:51;;;;;;;33.35;16.02;;;9.20;99.90;;;;;;5015032;28;20030;-85
2021/11/24 09:57:18;;;;;;;24.58;16.10;;;9.30;99.90;;;;;;5020669;28;20033;-83
2021/11/24 09:59:44;;;;;;;24.67;14.80;;;9.30;99.90;;;;;;5014023;28;20112;-83
2021/11/24 10:02:12;;;;;;;24.50;16.20;;;9.40;99.90;;;;;;5016167;28;20381;-84
2021/11/24 10:04:39;;;;;;;23.48;14.93;;;9.40;99.90;;;;;;5015797;28;20533;-84
2021/11/24 10:07:07;;;;;;;23.13;14.80;;;9.40;99.80;;;;;;5008744;28;20037;-85
2021/11/24 10:09:34;;;;;;;22.45;14.90;;;9.40;99.90;;;;;;5024539;28;20157;-87
2021/11/24 10:11:59;;;;;;;24.63;15.57;;;9.40;99.90;;;;;;5015824;28;20029;-84
2021/11/24 10:14:25;;;;;;;27.50;15.57;;;9.50;99.80;;;;;;5023361;28;20038;-84
2021/11/24 10:16:50;;;;;;;27.52;16.70;;;9.50;99.70;;;;;;5012342;28;20076;-83
2021/11/24 10:19:16;;;;;;;25.15;14.80;;;9.50;99.60;;;;;;5018532;28;20504;-84
2021/11/24 10:22:01;;;;;;;24.92;15.25;;;9.60;99.80;;;;;;5030127;28;20041;-84
2021/11/24 10:24:35;;;;;;;25.23;16.20;;;9.70;99.40;;;;;;5019680;28;20042;-85
2021/11/24 10:27:03;;;;;;;20.85;13.88;;;9.60;99.40;;;;;;5028711;28;20036;-83
2021/11/24 10:29:29;;;;;;;28.67;15.32;;;9.70;99.50;;;;;;5036617;28;20045;-84
2021/11/24 10:32:02;;;;;;;24.88;15.02;;;9.70;99.40;;;;;;5037915;28;20025;-84
2021/11/24 10:34:34;;;;;;;23.90;14.32;;;9.80;99.30;;;;;;5037010;28;20493;-84
2021/11/24 10:37:15;;;;;;;29.58;15.75;;;9.80;99.20;;;;;;5045442;28;20641;-84
2021/11/24 10:39:45;;;;;;;23.73;15.30;;;9.80;99.30;;;;;;5034438;28;20041;-83
2021/11/24 10:42:15;;;;;;;25.00;14.73;;;9.80;99.20;;;;;;5038244;28;20611;-83
2021/11/24 10:44:50;;;;;;;24.30;15.35;;;9.80;99.10;;;;;;5044910;28;20040;-83
2021/11/24 10:47:16;;;;;;;26.35;15.45;;;9.90;99.20;;;;;;5046978;28;20029;-83
2021/11/24 10:49:50;;;;;;;24.15;15.45;;;9.90;99.20;;;;;;5046491;28;20095;-84
2021/11/24 10:52:30;;;;;;;28.10;15.90;;;9.90;99.20;;;;;;5033006;28;20065;-86
2021/11/24 10:55:01;;;;;;;24.33;14.43;;;10.00;99.00;;;;;;5028297;28;20029;-83
2021/11/24 10:57:28;;;;;;;26.58;16.00;;;10.00;98.80;;;;;;5030752;28;20033;-84
2021/11/24 11:00:00;;;;;;;28.27;17.00;;;10.10;98.60;;;;;;5029627;28;20106;-84
2021/11/24 11:02:34;;;;;;;23.05;15.23;;;10.10;98.40;;;;;;5030509;28;20037;-84
2021/11/24 11:05:02;;;;;;;24.52;14.60;;;10.20;98.50;;;;;;5025618;28;20026;-85
2021/11/24 11:07:30;;;;;;;29.17;14.88;;;10.20;98.60;;;;;;5028891;28;20079;-85
2021/11/24 11:10:14;;;;;;;23.27;14.23;;;10.20;98.60;;;;;;5018306;28;20115;-84
2021/11/24 11:12:43;;;;;;;24.35;14.48;;;10.20;98.50;;;;;;5026259;28;20092;-83
2021/11/24 11:15:18;;;;;;;25.48;14.05;;;10.20;98.60;;;;;;5011168;28;20040;-83
2021/11/24 11:17:51;;;;;;;24.25;12.98;;;10.20;98.20;;;;;;5019512;28;20033;-85
2021/11/24 11:20:16;;;;;;;25.17;14.77;;;10.20;98.20;;;;;;5010511;28;20474;-84
2021/11/24 11:22:43;;;;;;;23.88;14.57;;;10.20;98.40;;;;;;5010992;28;20034;-84
2021/11/24 11:25:10;;;;;;;22.90;14.88;;;10.20;98.50;;;;;;5022763;28;20022;-85
2021/11/24 11:27:35;;;;;;;23.58;14.57;;;10.10;98.00;;;;;;5014763;28;20034;-83
2021/11/24 11:30:01;;;;;;;26.58;15.18;;;10.10;98.30;;;;;;5021405;28;20381;-82
2021/11/24 11:32:28;;;;;;;23.40;13.75;;;10.20;98.40;;;;;;5029421;28;20453;-82
2021/11/24 11:34:54;;;;;;;24.42;14.18;;;10.20;98.40;;;;;;5030183;28;20072;-82
2021/11/24 11:37:20;;;;;;;20.70;13.30;;;10.20;98.60;;;;;;5018297;28;20049;-82
2021/11/24 11:39:46;;;;;;;24.13;13.65;;;10.20;98.30;;;;;;5009503;28;20088;-82
2021/11/24 11:42:14;;;;;;;30.00;15.88;;;10.20;98.20;;;;;;5021841;28;20486;-82
2021/11/24 11:44:40;;;;;;;29.75;15.95;;;10.20;98.30;;;;;;5042442;28;20038;-83
2021/11/24 11:47:06;;;;;;;24.50;13.95;;;10.30;98.30;;;;;;5024789;28;20033;-82
2021/11/24 11:49:31;;;;;;;23.30;14.55;;;10.30;98.40;;;;;;5009500;28;20111;-82
2021/11/24 11:52:10;;;;;;;20.67;13.23;;;10.30;98.20;;;;;;5012849;28;20059;-82
2021/11/24 11:54:36;;;;;;;22.25;14.38;;;10.30;98.00;;;;;;5020637;28;20039;-82
2021/11/24 11:57:06;;;;;;;21.83;14.45;;;10.30;98.00;;;;;;5029299;28;20363;-82
2021/11/24 11:59:35;;;;;;;21.25;13.50;;;10.30;97.90;;;;;;5010679;28;20033;-82
2021/11/24 12:02:07;;;;;;;22.52;13.55;;;10.40;98.10;;;;;;5013031;28;20029;-83
2021/11/24 12:04:45;;;;;;;22.27;14.48;;;10.40;97.60;;;;;;5027713;28;20430;-82
2021/11/24 12:07:19;;;;;;;22.30;13.30;;;10.40;97.70;;;;;;5028834;28;20034;-83
2021/11/24 12:09:46;;;;;;;22.42;13.60;;;10.40;97.60;;;;;;5029083;28;20061;-84
2021/11/24 12:12:33;;;;;;;29.25;15.35;;;10.40;97.50;;;;;;5022844;28;20441;-82
2021/11/24 12:15:28;;;;;;;20.30;13.27;;;10.40;97.40;;;;;;5012706;28;20034;-82
2021/11/24 12:17:56;;;;;;;21.98;12.68;;;10.50;97.60;;;;;;5028752;28;20584;-83
2021/11/24 12:20:23;;;;;;;19.30;12.55;;;10.50;97.50;;;;;;5032591;28;20356;-82
2021/11/24 12:22:53;;;;;;;43.47;19.58;;;10.50;97.30;;;;;;5027985;28;20433;-83
2021/11/24 12:27:53;;;;;;;21.52;13.70;;;10.50;97.50;;;;;;5035118;28;20486;-85
2021/11/24 12:30:37;;;;;;;21.48;13.32;;;10.40;97.20;;;;;;5034954;28;20091;-84
2021/11/24 12:33:15;;;;;;;19.73;12.93;;;10.50;97.30;;;;;;5034230;28;20073;-83
2021/11/24 12:36:01;;;;;;;20.55;13.07;;;10.50;97.50;;;;;;5040948;28;20474;-85
2021/11/24 12:38:30;;;;;;;20.58;14.00;;;10.50;97.60;;;;;;5032711;28;20474;-83
2021/11/24 12:41:01;;;;;;;22.63;13.70;;;10.40;97.70;;;;;;5015849;28;20129;-85